createdAt,value
2017-11-11T00:01:43.713Z,5.39
2017-11-11T00:04:10.011Z,5.38
2017-11-11T00:06:36.264Z,5.40
2017-11-11T00:09:02.518Z,5.40
2017-11-11T00:11:28.798Z,5.40
2017-11-11T00:13:55.024Z,5.40
2017-11-11T00:16:21.242Z,5.39
2017-11-11T00:18:47.507Z,5.48
2017-11-11T00:21:13.740Z,5.52
2017-11-11T00:23:39.970Z,5.68
2017-11-11T00:26:06.225Z,5.69
2017-11-11T00:28:32.468Z,5.64
2017-11-11T00:30:58.706Z,5.67
2017-11-11T00:33:24.973Z,5.62
2017-11-11T00:35:51.193Z,5.58
2017-11-11T00:38:17.417Z,5.59
2017-11-11T00:40:43.683Z,5.54
2017-11-11T00:43:09.943Z,5.44
2017-11-11T00:45:36.167Z,5.37
2017-11-11T00:48:02.440Z,5.24
2017-11-11T00:50:28.680Z,5.16
2017-11-11T00:52:54.920Z,5.09
2017-11-11T00:55:21.200Z,5.12
2017-11-11T00:57:47.445Z,5.20
2017-11-11T01:00:13.683Z,5.13
2017-11-11T01:02:39.963Z,5.03
2017-11-11T01:05:06.191Z,5.02
2017-11-11T01:07:32.441Z,4.96
2017-11-11T01:09:58.728Z,4.96
2017-11-11T01:12:24.961Z,4.88
2017-11-11T01:14:51.197Z,4.92
2017-11-11T01:17:17.497Z,4.84
2017-11-11T01:19:43.722Z,4.75
2017-11-11T01:22:09.973Z,4.66
2017-11-11T01:24:36.248Z,4.79
2017-11-11T01:27:02.518Z,4.77
2017-11-11T01:29:28.750Z,4.68
2017-11-11T01:31:55.028Z,4.49
2017-11-11T01:34:21.252Z,4.68
2017-11-11T01:36:47.486Z,4.75
2017-11-11T01:39:13.767Z,4.77
2017-11-11T01:41:40.010Z,4.96
2017-11-11T01:44:06.259Z,4.99
2017-11-11T01:46:32.538Z,5.00
2017-11-11T01:48:58.762Z,4.96
2017-11-11T01:51:24.988Z,4.88
2017-11-11T01:53:51.251Z,4.76
2017-11-11T01:56:17.503Z,4.83
2017-11-11T01:58:43.746Z,4.89
2017-11-11T02:01:10.031Z,4.76
2017-11-11T02:03:36.258Z,4.72
2017-11-11T02:06:02.488Z,4.75
2017-11-11T02:08:28.828Z,4.64
2017-11-11T02:10:55.091Z,4.62
2017-11-11T02:13:21.348Z,4.58
2017-11-11T02:15:47.629Z,4.58
2017-11-11T02:18:13.869Z,4.49
2017-11-11T02:20:40.107Z,4.36
2017-11-11T02:23:06.378Z,4.28
2017-11-11T02:25:32.647Z,4.20
2017-11-11T02:27:58.898Z,4.28
2017-11-11T02:30:25.164Z,4.15
2017-11-11T02:32:51.400Z,4.11
2017-11-11T02:35:17.657Z,4.03
2017-11-11T02:37:43.943Z,4.09
2017-11-11T02:40:10.176Z,4.02
2017-11-11T02:42:36.453Z,4.02
2017-11-11T02:45:02.759Z,4.08
2017-11-11T02:47:29.001Z,4.16
2017-11-11T02:49:55.245Z,4.11
2017-11-11T02:52:21.644Z,4.13
2017-11-11T02:54:47.927Z,4.23
2017-11-11T02:57:14.179Z,4.29
2017-11-11T02:59:40.460Z,4.24
2017-11-11T03:02:06.685Z,4.22
2017-11-11T03:04:32.901Z,4.19
2017-11-11T03:06:59.198Z,4.30
2017-11-11T03:09:25.408Z,4.24
2017-11-11T03:11:51.643Z,4.25
2017-11-11T03:14:17.923Z,4.28
2017-11-11T03:16:44.184Z,4.35
2017-11-11T03:19:10.427Z,4.36
2017-11-11T03:21:36.711Z,4.46
2017-11-11T03:24:02.932Z,4.41
2017-11-11T03:26:29.173Z,4.28
2017-11-11T03:28:55.436Z,4.20
2017-11-11T03:31:21.666Z,4.10
2017-11-11T03:33:47.898Z,4.11
2017-11-11T03:36:14.163Z,4.13
2017-11-11T03:38:40.399Z,4.09
2017-11-11T03:41:06.634Z,4.07
2017-11-11T03:43:32.895Z,4.00
2017-11-11T03:45:59.132Z,3.95
2017-11-11T03:48:25.362Z,3.89
2017-11-11T03:50:51.635Z,3.88
2017-11-11T03:53:17.860Z,3.76
2017-11-11T03:55:44.095Z,3.62
2017-11-11T03:58:10.365Z,3.49
2017-11-11T04:00:36.614Z,3.66
2017-11-11T04:03:02.995Z,3.73
2017-11-11T04:05:29.269Z,3.62
2017-11-11T04:07:55.493Z,3.60
2017-11-11T04:10:21.732Z,3.55
2017-11-11T04:12:48.010Z,3.73
2017-11-11T04:15:14.258Z,3.73
2017-11-11T04:17:40.489Z,3.71
2017-11-11T04:20:06.772Z,3.52
2017-11-11T04:22:33.000Z,3.39
2017-11-11T04:24:59.230Z,3.44
2017-11-11T04:27:25.494Z,3.51
2017-11-11T04:29:51.724Z,3.54
2017-11-11T04:32:17.960Z,3.65
2017-11-11T04:34:44.225Z,3.69
2017-11-11T04:37:10.444Z,3.87
2017-11-11T04:39:36.671Z,3.98
2017-11-11T04:42:02.949Z,4.01
2017-11-11T04:44:29.193Z,4.02
2017-11-11T04:46:55.426Z,4.09
2017-11-11T04:49:21.697Z,4.09
2017-11-11T04:51:47.952Z,3.98
2017-11-11T04:54:14.175Z,3.93
2017-11-11T04:56:40.450Z,3.89
2017-11-11T04:59:06.695Z,3.79
2017-11-11T05:01:32.938Z,3.90
2017-11-11T05:03:59.221Z,3.86
2017-11-11T05:06:25.493Z,3.94
2017-11-11T05:08:51.725Z,3.94
2017-11-11T05:11:17.993Z,4.07
2017-11-11T05:13:44.206Z,4.28
2017-11-11T05:16:10.425Z,4.33
2017-11-11T05:18:36.704Z,4.36
2017-11-11T05:21:02.937Z,4.36
2017-11-11T05:23:29.168Z,4.26
2017-11-11T05:25:55.446Z,4.30
2017-11-11T05:28:21.703Z,4.39
2017-11-11T05:30:47.917Z,4.47
2017-11-11T05:33:14.168Z,4.58
2017-11-11T05:35:40.384Z,4.75
2017-11-11T05:38:06.601Z,4.78
2017-11-11T05:40:32.874Z,4.76
2017-11-11T05:42:59.137Z,4.82
2017-11-11T05:45:25.364Z,4.79
2017-11-11T05:47:51.610Z,4.74
2017-11-11T05:50:17.818Z,4.83
2017-11-11T05:52:44.036Z,4.93
2017-11-11T05:55:10.378Z,4.99
2017-11-11T05:57:36.608Z,5.06
2017-11-11T06:00:02.822Z,5.09
2017-11-11T06:02:29.108Z,5.19
2017-11-11T06:04:55.338Z,5.24
2017-11-11T06:07:21.571Z,5.31
2017-11-11T06:09:47.852Z,5.43
2017-11-11T06:12:14.089Z,5.51
2017-11-11T06:14:40.316Z,5.66
2017-11-11T06:17:06.593Z,5.83
2017-11-11T06:19:32.820Z,5.76
2017-11-11T06:21:59.060Z,5.79
2017-11-11T06:24:25.318Z,5.87
2017-11-11T06:26:51.550Z,6.05
2017-11-11T06:29:17.803Z,6.24
2017-11-11T06:31:44.283Z,6.43
2017-11-11T06:34:10.516Z,6.59
2017-11-11T06:36:36.746Z,6.83
2017-11-11T06:39:03.034Z,6.98
2017-11-11T06:41:29.287Z,7.12
2017-11-11T06:43:55.528Z,7.30
2017-11-11T06:46:21.794Z,7.33
2017-11-11T06:48:48.097Z,7.33
2017-11-11T06:51:14.345Z,7.62
2017-11-11T06:53:40.639Z,7.72
2017-11-11T06:56:06.880Z,7.70
2017-11-11T06:58:33.123Z,7.82
2017-11-11T07:00:59.418Z,7.88
2017-11-11T07:03:25.674Z,7.86
2017-11-11T07:05:51.920Z,7.89
2017-11-11T07:08:18.215Z,7.96
2017-11-11T07:10:44.439Z,8.14
2017-11-11T07:13:10.679Z,8.28
2017-11-11T07:15:36.963Z,8.53
2017-11-11T07:18:03.206Z,8.72
2017-11-11T07:20:29.456Z,9.01
2017-11-11T07:22:55.728Z,9.07
2017-11-11T07:25:21.973Z,9.39
2017-11-11T07:27:48.197Z,9.78
2017-11-11T07:30:14.517Z,10.27
2017-11-11T07:32:40.794Z,10.80
2017-11-11T07:35:07.071Z,11.12
2017-11-11T07:37:33.338Z,11.31
2017-11-11T07:39:59.573Z,11.51
2017-11-11T07:42:25.803Z,11.43
2017-11-11T07:44:52.099Z,11.45
2017-11-11T07:47:18.342Z,11.62
2017-11-11T07:49:44.581Z,11.81
2017-11-11T07:52:10.880Z,11.63
2017-11-11T07:54:37.126Z,11.91
2017-11-11T07:57:03.375Z,12.20
2017-11-11T07:59:29.671Z,12.36
2017-11-11T08:01:55.910Z,12.55
2017-11-11T08:04:22.180Z,12.96
2017-11-11T08:06:48.454Z,13.22
2017-11-11T08:09:14.710Z,13.54
2017-11-11T08:11:40.949Z,13.33
2017-11-11T08:14:07.218Z,13.24
2017-11-11T08:16:33.474Z,13.45
2017-11-11T08:18:59.731Z,13.57
2017-11-11T08:21:26.011Z,13.53
2017-11-11T08:23:52.264Z,13.48
2017-11-11T08:26:18.529Z,13.58
2017-11-11T08:28:44.805Z,13.46
2017-11-11T08:31:11.034Z,13.35
2017-11-11T08:33:37.267Z,13.34
2017-11-11T08:36:03.559Z,13.21
2017-11-11T08:38:29.797Z,13.31
2017-11-11T08:40:56.038Z,13.33
2017-11-11T08:43:22.345Z,13.29
2017-11-11T08:45:48.590Z,13.22
2017-11-11T08:48:14.941Z,13.22
2017-11-11T08:50:41.204Z,13.12
2017-11-11T08:53:07.453Z,13.06
2017-11-11T08:55:33.680Z,12.92
2017-11-11T08:57:59.944Z,12.90
2017-11-11T09:00:26.190Z,12.87
2017-11-11T09:02:52.436Z,12.86
2017-11-11T09:05:18.761Z,12.93
2017-11-11T09:07:45.015Z,12.97
2017-11-11T09:10:11.253Z,13.01
2017-11-11T09:12:37.505Z,13.06
2017-11-11T09:15:03.723Z,13.08
2017-11-11T09:17:29.995Z,13.09
2017-11-11T09:19:56.265Z,13.11
2017-11-11T09:22:22.510Z,13.21
2017-11-11T09:24:48.766Z,13.21
2017-11-11T09:27:15.061Z,13.26
2017-11-11T09:29:41.293Z,13.38
2017-11-11T09:32:07.534Z,13.38
2017-11-11T09:34:33.809Z,13.45
2017-11-11T09:37:00.041Z,13.45
2017-11-11T09:39:26.284Z,13.49
2017-11-11T09:41:52.566Z,13.46
2017-11-11T09:44:18.872Z,13.46
2017-11-11T09:46:45.116Z,13.41
2017-11-11T09:49:11.653Z,13.36
2017-11-11T09:51:37.889Z,13.31
2017-11-11T09:54:04.129Z,13.32
2017-11-11T09:56:30.426Z,13.26
2017-11-11T09:58:56.670Z,13.32
2017-11-11T10:01:22.926Z,13.35
2017-11-11T10:03:49.249Z,13.41
2017-11-11T10:06:15.502Z,13.41
2017-11-11T10:08:41.736Z,13.31
2017-11-11T10:11:08.027Z,13.32
2017-11-11T10:13:34.278Z,13.31
2017-11-11T10:16:00.566Z,13.33
2017-11-11T10:18:26.843Z,13.34
2017-11-11T10:20:53.072Z,13.40
2017-11-11T10:23:19.313Z,13.43
2017-11-11T10:25:45.597Z,13.50
2017-11-11T10:28:11.891Z,13.52
2017-11-11T10:30:38.145Z,13.67
2017-11-11T10:33:04.396Z,13.85
2017-11-11T10:35:30.659Z,13.99
2017-11-11T10:37:56.911Z,14.19
2017-11-11T10:40:23.167Z,14.42
2017-11-11T10:42:49.516Z,14.63
2017-11-11T10:45:15.753Z,14.70
2017-11-11T10:47:42.012Z,14.71
2017-11-11T10:50:08.281Z,14.54
2017-11-11T10:52:34.528Z,14.78
2017-11-11T10:55:00.815Z,14.97
2017-11-11T10:57:27.053Z,15.24
2017-11-11T10:59:53.284Z,15.67
2017-11-11T11:02:19.570Z,15.89
2017-11-11T11:04:45.811Z,16.11
2017-11-11T11:07:12.053Z,15.74
2017-11-11T11:09:38.405Z,15.64
2017-11-11T11:12:04.660Z,15.86
2017-11-11T11:14:30.909Z,16.06
2017-11-11T11:16:57.173Z,16.20
2017-11-11T11:19:23.384Z,16.21
2017-11-11T11:21:49.631Z,16.07
2017-11-11T11:24:15.919Z,17.24
2017-11-11T11:26:42.147Z,18.84
2017-11-11T11:29:08.395Z,20.71
2017-11-11T11:31:34.686Z,22.41
2017-11-11T11:34:00.946Z,23.98
2017-11-11T11:36:27.212Z,25.76
2017-11-11T11:38:53.488Z,25.87
2017-11-11T11:41:19.723Z,26.46
2017-11-11T11:43:45.966Z,27.56
2017-11-11T11:46:12.253Z,27.41
2017-11-11T11:48:38.499Z,26.41
2017-11-11T11:51:04.746Z,25.35
2017-11-11T11:53:31.020Z,23.99
2017-11-11T11:55:57.296Z,22.89
2017-11-11T11:58:23.543Z,22.04
2017-11-11T12:00:49.825Z,21.53
2017-11-11T12:03:16.071Z,21.21
2017-11-11T12:05:42.305Z,20.91
2017-11-11T12:08:08.568Z,20.67
2017-11-11T12:10:34.814Z,20.37
2017-11-11T12:13:01.064Z,20.19
2017-11-11T12:15:27.345Z,20.02
2017-11-11T12:17:53.591Z,20.02
2017-11-11T12:20:19.835Z,19.96
2017-11-11T12:22:46.133Z,19.79
2017-11-11T12:25:12.365Z,19.61
2017-11-11T12:27:38.592Z,19.46
2017-11-11T12:30:04.876Z,19.27
2017-11-11T12:32:31.162Z,18.86
2017-11-11T12:34:57.406Z,19.02
2017-11-11T12:37:23.729Z,19.11
2017-11-11T12:39:49.953Z,19.14
2017-11-11T12:42:16.202Z,19.21
2017-11-11T12:44:42.482Z,19.27
2017-11-11T12:47:08.720Z,19.31
2017-11-11T12:49:34.961Z,19.19
2017-11-11T12:52:01.245Z,19.16
2017-11-11T12:54:27.480Z,19.09
2017-11-11T12:56:53.715Z,19.10
2017-11-11T12:59:19.984Z,19.10
2017-11-11T13:01:46.231Z,19.07
2017-11-11T13:04:12.491Z,19.07
2017-11-11T13:06:38.755Z,19.09
2017-11-11T13:09:04.988Z,19.03
2017-11-11T13:11:31.229Z,19.01
2017-11-11T13:13:57.492Z,18.96
2017-11-11T13:16:23.718Z,18.81
2017-11-11T13:18:49.998Z,18.70
2017-11-11T13:21:16.271Z,18.56
2017-11-11T13:23:42.497Z,18.44
2017-11-11T13:26:08.741Z,18.33
2017-11-11T13:28:35.009Z,18.17
2017-11-11T13:31:01.254Z,18.02
2017-11-11T13:33:27.491Z,17.87
2017-11-11T13:35:53.775Z,17.74
2017-11-11T13:38:20.013Z,17.60
2017-11-11T13:40:46.237Z,17.41
2017-11-11T13:43:12.520Z,17.30
2017-11-11T13:45:38.744Z,17.20
2017-11-11T13:48:04.989Z,17.10
2017-11-11T13:50:31.288Z,17.01
2017-11-11T13:52:57.543Z,16.93
2017-11-11T13:55:23.767Z,16.81
2017-11-11T13:57:50.048Z,16.69
2017-11-11T14:00:16.267Z,16.54
2017-11-11T14:02:42.502Z,16.39
2017-11-11T14:05:08.772Z,16.26
2017-11-11T14:07:35.022Z,16.10
2017-11-11T14:10:01.265Z,15.99
2017-11-11T14:12:27.557Z,15.87
2017-11-11T14:14:53.802Z,15.76
2017-11-11T14:17:20.054Z,15.63
2017-11-11T14:19:46.314Z,15.52
2017-11-11T14:22:12.531Z,15.44
2017-11-11T14:24:38.753Z,15.35
2017-11-11T14:27:05.033Z,15.25
2017-11-11T14:29:31.263Z,15.21
2017-11-11T14:31:57.509Z,15.13
2017-11-11T14:34:23.784Z,14.99
2017-11-11T14:36:50.033Z,14.81
2017-11-11T14:39:16.257Z,14.69
2017-11-11T14:41:42.544Z,14.65
2017-11-11T14:44:08.788Z,14.58
2017-11-11T14:46:35.037Z,14.58
2017-11-11T14:49:01.325Z,14.57
2017-11-11T14:51:27.564Z,14.53
2017-11-11T14:53:53.819Z,14.36
2017-11-11T14:56:20.080Z,14.20
2017-11-11T14:58:46.317Z,14.13
2017-11-11T15:01:12.532Z,14.08
2017-11-11T15:03:38.818Z,13.98
2017-11-11T15:06:05.053Z,13.93
2017-11-11T15:08:31.277Z,13.81
2017-11-11T15:10:57.561Z,13.72
2017-11-11T15:13:23.813Z,13.67
2017-11-11T15:15:50.058Z,13.59
2017-11-11T15:18:16.343Z,13.54
2017-11-11T15:20:42.778Z,13.46
2017-11-11T15:23:09.011Z,13.47
2017-11-11T15:25:35.265Z,13.48
2017-11-11T15:28:01.515Z,13.41
2017-11-11T15:30:27.780Z,13.36
2017-11-11T15:32:54.056Z,13.34
2017-11-11T15:35:20.298Z,13.34
2017-11-11T15:37:46.538Z,13.34
2017-11-11T15:40:12.831Z,13.25
2017-11-11T15:42:39.079Z,13.19
2017-11-11T15:45:05.329Z,13.15
2017-11-11T15:47:31.619Z,13.10
2017-11-11T15:49:57.871Z,13.07
2017-11-11T15:52:24.120Z,13.04
2017-11-11T15:54:50.419Z,13.00
2017-11-11T15:57:16.657Z,12.98
2017-11-11T15:59:42.905Z,12.92
2017-11-11T16:02:09.194Z,12.90
2017-11-11T16:04:35.416Z,12.84
2017-11-11T16:07:01.679Z,12.77
2017-11-11T16:09:27.951Z,12.72
2017-11-11T16:11:54.211Z,12.69
2017-11-11T16:14:20.441Z,12.64
2017-11-11T16:16:46.716Z,12.62
2017-11-11T16:19:12.957Z,12.60
2017-11-11T16:21:39.226Z,12.56
2017-11-11T16:24:05.506Z,12.55
2017-11-11T16:26:31.724Z,12.46
2017-11-11T16:28:57.962Z,12.34
2017-11-11T16:31:24.240Z,12.21
2017-11-11T16:33:50.486Z,12.08
2017-11-11T16:36:16.753Z,11.96
2017-11-11T16:38:43.048Z,11.90
2017-11-11T16:41:09.317Z,11.89
2017-11-11T16:43:35.592Z,11.89
2017-11-11T16:46:02.218Z,11.89
2017-11-11T16:48:28.455Z,11.90
2017-11-11T16:50:54.680Z,11.86
2017-11-11T16:53:20.965Z,11.93
2017-11-11T16:55:47.189Z,11.90
2017-11-11T16:58:13.434Z,11.85
2017-11-11T17:00:39.730Z,11.89
2017-11-11T17:03:05.966Z,11.93
2017-11-11T17:05:32.231Z,11.82
2017-11-11T17:07:58.509Z,11.71
2017-11-11T17:10:24.761Z,11.64
2017-11-11T17:12:50.980Z,11.56
2017-11-11T17:15:17.252Z,11.49
2017-11-11T17:17:43.501Z,11.46
2017-11-11T17:20:09.722Z,11.45
2017-11-11T17:22:36.014Z,11.42
2017-11-11T17:25:02.294Z,11.45
2017-11-11T17:27:28.590Z,11.49
2017-11-11T17:29:55.850Z,11.44
2017-11-11T17:32:22.068Z,11.43
2017-11-11T17:34:48.286Z,11.43
2017-11-11T17:37:14.592Z,11.53
2017-11-11T17:39:40.833Z,11.50
2017-11-11T17:42:07.091Z,11.45
2017-11-11T17:44:33.407Z,11.50
2017-11-11T17:46:59.621Z,11.36
2017-11-11T17:49:25.863Z,11.40
2017-11-11T17:51:52.128Z,11.40
2017-11-11T17:54:18.374Z,11.42
2017-11-11T17:56:44.618Z,11.40
2017-11-11T17:59:10.881Z,11.36
2017-11-11T18:01:37.097Z,11.39
2017-11-11T18:04:03.332Z,11.38
2017-11-11T18:06:29.612Z,11.37
2017-11-11T18:08:55.843Z,11.36
2017-11-11T18:11:22.091Z,11.30
2017-11-11T18:13:48.395Z,11.43
2017-11-11T18:16:14.638Z,11.43
2017-11-11T18:18:40.874Z,11.46
2017-11-11T18:21:07.152Z,11.40
2017-11-11T18:23:33.415Z,11.38
2017-11-11T18:25:59.767Z,11.37
2017-11-11T18:28:26.059Z,11.33
2017-11-11T18:30:52.281Z,11.43
2017-11-11T18:33:18.578Z,11.48
2017-11-11T18:35:44.830Z,11.39
2017-11-11T18:38:11.076Z,11.34
2017-11-11T18:40:37.289Z,11.35
2017-11-11T18:43:03.587Z,11.28
2017-11-11T18:45:29.805Z,11.27
2017-11-11T18:47:56.070Z,11.40
2017-11-11T18:50:22.357Z,11.42
2017-11-11T18:52:48.600Z,11.44
2017-11-11T18:55:14.841Z,11.40
2017-11-11T18:57:41.117Z,11.35
2017-11-11T19:00:07.353Z,11.31
2017-11-11T19:02:33.592Z,11.34
2017-11-11T19:04:59.865Z,11.30
2017-11-11T19:07:26.157Z,11.31
2017-11-11T19:09:52.423Z,11.20
2017-11-11T19:12:18.682Z,11.08
2017-11-11T19:14:44.907Z,11.05
2017-11-11T19:17:11.154Z,11.14
2017-11-11T19:19:37.431Z,11.16
2017-11-11T19:22:03.662Z,11.12
2017-11-11T19:24:29.908Z,11.04
2017-11-11T19:26:56.174Z,10.95
2017-11-11T19:29:22.411Z,10.92
2017-11-11T19:31:48.652Z,10.89
2017-11-11T19:34:14.920Z,10.84
2017-11-11T19:36:41.182Z,10.87
2017-11-11T19:39:07.436Z,10.86
2017-11-11T19:41:33.707Z,10.93
2017-11-11T19:43:59.937Z,10.86
2017-11-11T19:46:26.206Z,10.86
2017-11-11T19:48:52.475Z,10.85
2017-11-11T19:51:18.753Z,10.79
2017-11-11T19:53:44.986Z,10.80
2017-11-11T19:56:11.291Z,10.80
2017-11-11T19:58:37.613Z,10.83
2017-11-11T20:01:03.840Z,10.75
2017-11-11T20:03:30.128Z,10.73
2017-11-11T20:05:56.362Z,10.80
2017-11-11T20:08:22.630Z,10.84
2017-11-11T20:10:48.922Z,10.91
2017-11-11T20:13:15.163Z,10.79
2017-11-11T20:15:41.403Z,10.74
2017-11-11T20:18:07.713Z,10.63
2017-11-11T20:20:33.957Z,10.65
2017-11-11T20:23:00.207Z,10.70
2017-11-11T20:25:26.477Z,10.77
2017-11-11T20:27:52.713Z,10.72
2017-11-11T20:30:18.942Z,10.72
2017-11-11T20:32:45.243Z,10.70
2017-11-11T20:35:11.481Z,10.68
2017-11-11T20:37:37.736Z,10.63
2017-11-11T20:40:04.031Z,10.52
2017-11-11T20:42:30.373Z,10.53
2017-11-11T20:44:56.613Z,10.43
2017-11-11T20:47:22.911Z,10.41
2017-11-11T20:49:49.162Z,10.39
2017-11-11T20:52:15.416Z,10.49
2017-11-11T20:54:41.690Z,10.52
2017-11-11T20:57:07.980Z,10.56
2017-11-11T20:59:34.209Z,10.62
2017-11-11T21:02:00.501Z,10.67
2017-11-11T21:04:26.757Z,10.73
2017-11-11T21:06:53.028Z,10.74
2017-11-11T21:09:19.312Z,10.77
2017-11-11T21:11:45.553Z,10.84
2017-11-11T21:14:11.803Z,10.90
2017-11-11T21:16:38.050Z,11.00
2017-11-11T21:19:04.306Z,11.05
2017-11-11T21:21:30.563Z,11.01
2017-11-11T21:23:56.846Z,11.03
2017-11-11T21:26:23.146Z,10.99
2017-11-11T21:28:49.412Z,10.96
2017-11-11T21:31:15.678Z,10.94
2017-11-11T21:33:41.997Z,10.99
2017-11-11T21:36:08.337Z,10.84
2017-11-11T21:38:34.613Z,10.73
2017-11-11T21:41:00.848Z,10.68
2017-11-11T21:43:27.407Z,10.71
2017-11-11T21:45:53.690Z,10.66
2017-11-11T21:48:19.934Z,10.62
2017-11-11T21:50:46.172Z,10.60
2017-11-11T21:53:12.439Z,10.58
2017-11-11T21:55:38.733Z,10.65
2017-11-11T21:58:04.992Z,10.76
2017-11-11T22:00:31.240Z,10.78
2017-11-11T22:02:57.495Z,10.81
2017-11-11T22:05:23.733Z,10.71
2017-11-11T22:07:49.957Z,10.57
2017-11-11T22:10:16.147Z,10.50
2017-11-11T22:12:42.369Z,10.48
2017-11-11T22:15:08.610Z,10.53
2017-11-11T22:17:34.825Z,10.60
2017-11-11T22:20:00.989Z,10.59
2017-11-11T22:22:27.285Z,10.60
2017-11-11T22:24:53.536Z,10.53
2017-11-11T22:27:19.708Z,10.51
2017-11-11T22:29:45.934Z,10.47
2017-11-11T22:32:12.127Z,10.47
2017-11-11T22:34:38.345Z,10.50
2017-11-11T22:37:04.595Z,10.44
2017-11-11T22:39:30.817Z,10.41
2017-11-11T22:41:56.998Z,10.31
2017-11-11T22:44:23.236Z,10.30
2017-11-11T22:46:49.533Z,10.23
2017-11-11T22:49:15.700Z,10.29
2017-11-11T22:51:41.909Z,10.38
2017-11-11T22:54:08.081Z,10.36
2017-11-11T22:56:34.289Z,10.38
2017-11-11T22:59:00.527Z,10.38
2017-11-11T23:01:26.714Z,10.38
2017-11-11T23:03:52.907Z,10.26
2017-11-11T23:06:19.141Z,10.30
2017-11-11T23:08:45.341Z,10.32
2017-11-11T23:11:11.591Z,10.31
2017-11-11T23:13:37.862Z,10.33
2017-11-11T23:16:04.052Z,10.29
2017-11-11T23:18:30.248Z,10.32
2017-11-11T23:20:56.485Z,10.23
2017-11-11T23:23:22.670Z,10.28
2017-11-11T23:25:48.869Z,10.33
2017-11-11T23:28:15.093Z,10.23
2017-11-11T23:30:41.279Z,10.13
2017-11-11T23:33:07.508Z,10.09
2017-11-11T23:35:33.755Z,10.17
2017-11-11T23:37:59.935Z,10.36
2017-11-11T23:40:26.091Z,10.26
2017-11-11T23:42:52.311Z,10.21
2017-11-11T23:45:18.462Z,10.32
2017-11-11T23:47:44.695Z,10.33
2017-11-11T23:50:10.975Z,10.29
2017-11-11T23:52:37.219Z,10.28
2017-11-11T23:55:03.434Z,10.38
2017-11-11T23:57:29.717Z,10.32
2017-11-11T23:59:55.968Z,10.25
